Time;durP1;ratioP1;P1;durP2;ratioP2;P2;SDS_P1;SDS_P2;PMS_P1;PMS_P2;Temp;Humidity;BMP_temperature;BMP_pressure;BME280_temperature;BME280_humidity;BME280_pressure;Samples;Min_cycle;Max_cycle;Signal;HPM_P1;HPM_P2
2020/12/27 00:02:05;;;;;;;4.47;3.63;;;5.00;80.60;;;;;;5072591;28;20202;-53
2020/12/27 00:04:31;;;;;;;5.87;4.00;;;4.90;81.00;;;;;;5072360;28;20625;-52
2020/12/27 00:07:01;;;;;;;2.30;2.10;;;4.80;80.30;;;;;;5072651;28;20702;-52
2020/12/27 00:09:28;;;;;;;3.87;3.57;;;4.80;80.30;;;;;;5073030;28;20656;-51
2020/12/27 00:11:55;;;;;;;3.60;2.78;;;4.80;80.20;;;;;;5073210;28;20968;-52
2020/12/27 00:14:23;;;;;;;8.03;3.23;;;4.90;80.00;;;;;;5073173;28;20236;-52
2020/12/27 00:16:49;;;;;;;4.23;2.73;;;4.80;81.20;;;;;;5072404;28;20671;-51
2020/12/27 00:19:16;;;;;;;2.70;2.30;;;4.80;80.90;;;;;;5072084;28;20657;-52
2020/12/27 00:21:43;;;;;;;4.40;3.17;;;4.80;80.00;;;;;;5072303;28;20637;-52
2020/12/27 00:24:09;;;;;;;4.57;3.30;;;4.80;79.60;;;;;;5071978;28;21210;-52
2020/12/27 00:26:36;;;;;;;5.67;2.80;;;4.90;79.80;;;;;;5071924;28;20689;-52
2020/12/27 00:29:03;;;;;;;4.80;3.73;;;4.90;79.00;;;;;;5072115;28;21243;-52
2020/12/27 00:31:31;;;;;;;6.65;4.07;;;5.00;79.30;;;;;;5072038;28;20625;-52
2020/12/27 00:33:57;;;;;;;5.43;4.07;;;5.00;78.90;;;;;;5072746;28;20198;-52
2020/12/27 00:36:24;;;;;;;4.80;4.13;;;5.00;79.00;;;;;;5073448;28;20681;-52
2020/12/27 00:38:51;;;;;;;4.37;2.73;;;5.00;78.70;;;;;;5071839;28;20645;-52
2020/12/27 00:41:22;;;;;;;4.20;2.90;;;5.00;79.20;;;;;;5071416;28;20698;-51
2020/12/27 00:43:49;;;;;;;2.60;2.40;;;5.00;78.50;;;;;;5072069;28;21181;-52
2020/12/27 00:46:16;;;;;;;4.20;3.00;;;5.00;78.50;;;;;;5071266;28;20669;-52
2020/12/27 00:48:43;;;;;;;4.65;3.78;;;5.00;78.30;;;;;;5072106;28;20701;-52
2020/12/27 00:51:10;;;;;;;4.70;3.33;;;5.00;78.20;;;;;;5072100;28;20248;-52
2020/12/27 00:53:37;;;;;;;6.17;3.50;;;4.90;78.50;;;;;;5071231;28;20690;-52
2020/12/27 00:56:03;;;;;;;4.00;3.30;;;5.00;79.20;;;;;;5071912;28;20692;-52
2020/12/27 00:58:31;;;;;;;4.00;3.40;;;5.00;78.90;;;;;;5071557;28;20681;-52
2020/12/27 01:00:59;;;;;;;3.00;2.80;;;4.90;78.30;;;;;;5072541;28;20757;-52
2020/12/27 01:03:25;;;;;;;4.70;3.30;;;5.00;78.40;;;;;;5071575;28;20625;-52
2020/12/27 01:05:53;;;;;;;4.47;3.80;;;5.00;78.00;;;;;;5072105;28;20736;-52
2020/12/27 01:08:19;;;;;;;3.35;3.05;;;5.00;77.70;;;;;;5072624;28;20665;-50
2020/12/27 01:10:46;;;;;;;2.03;1.93;;;5.00;78.00;;;;;;5071264;28;20522;-50
2020/12/27 01:13:13;;;;;;;2.50;2.37;;;5.00;77.30;;;;;;5071056;28;20624;-50
2020/12/27 01:15:40;;;;;;;2.43;2.23;;;4.90;77.20;;;;;;5071192;28;20659;-50
2020/12/27 01:18:07;;;;;;;3.43;3.13;;;4.90;77.20;;;;;;5070623;28;20688;-50
2020/12/27 01:20:34;;;;;;;3.50;2.90;;;4.90;77.40;;;;;;5071456;28;20679;-50
2020/12/27 01:23:03;;;;;;;3.28;2.97;;;4.90;77.70;;;;;;5070656;28;20629;-50
2020/12/27 01:25:29;;;;;;;2.50;2.30;;;4.90;77.90;;;;;;5070887;28;20725;-50
2020/12/27 01:27:56;;;;;;;5.25;3.50;;;4.80;77.90;;;;;;5070645;28;20272;-50
2020/12/27 01:30:23;;;;;;;2.13;1.97;;;4.80;77.80;;;;;;5071098;28;20207;-50
2020/12/27 01:32:50;;;;;;;2.60;2.37;;;4.90;78.00;;;;;;5070818;28;21266;-50
2020/12/27 01:35:17;;;;;;;6.60;3.42;;;4.90;78.20;;;;;;5070652;28;21257;-55
2020/12/27 01:37:43;;;;;;;4.43;3.90;;;4.90;77.80;;;;;;5070741;28;20215;-50
2020/12/27 01:40:11;;;;;;;2.13;1.97;;;4.90;78.40;;;;;;5070580;28;20621;-50
2020/12/27 01:42:38;;;;;;;2.20;1.93;;;5.00;77.50;;;;;;5070474;28;20621;-51
2020/12/27 01:45:05;;;;;;;4.87;2.97;;;4.90;76.90;;;;;;5069160;28;20617;-50
2020/12/27 01:47:33;;;;;;;2.13;1.93;;;4.90;77.60;;;;;;5070154;28;20687;-50
2020/12/27 01:50:00;;;;;;;2.35;1.75;;;4.90;77.20;;;;;;5070318;28;20707;-50
2020/12/27 01:52:27;;;;;;;2.03;1.80;;;4.90;76.70;;;;;;5069089;28;20229;-50
2020/12/27 01:54:54;;;;;;;2.70;1.88;;;4.70;76.60;;;;;;5069919;28;20633;-51
2020/12/27 01:57:22;;;;;;;2.60;1.90;;;4.70;76.70;;;;;;5070300;28;20582;-50
2020/12/27 01:59:50;;;;;;;4.78;3.75;;;4.70;76.70;;;;;;5069867;28;20982;-50
2020/12/27 02:02:17;;;;;;;2.63;2.40;;;4.70;76.70;;;;;;5069595;28;20203;-50
2020/12/27 02:04:44;;;;;;;2.47;2.28;;;4.80;77.00;;;;;;5069990;28;20625;-50
2020/12/27 02:07:12;;;;;;;7.00;2.80;;;4.80;77.10;;;;;;5070193;28;20238;-50
2020/12/27 02:09:38;;;;;;;4.73;3.93;;;4.80;76.90;;;;;;5070061;28;20211;-50
2020/12/27 02:12:06;;;;;;;5.87;3.63;;;4.80;77.90;;;;;;5070179;28;20628;-50
2020/12/27 02:14:33;;;;;;;4.55;2.78;;;4.70;78.00;;;;;;5069975;28;20697;-50
2020/12/27 02:17:01;;;;;;;4.93;4.53;;;4.60;78.50;;;;;;5069783;28;20729;-50
2020/12/27 02:19:28;;;;;;;6.57;3.77;;;4.50;78.80;;;;;;5069465;28;20911;-50
2020/12/27 02:21:55;;;;;;;4.78;2.85;;;4.50;79.40;;;;;;5070167;28;20698;-50
2020/12/27 02:24:22;;;;;;;5.45;3.45;;;4.50;79.40;;;;;;5069221;28;20205;-49
2020/12/27 02:26:56;;;;;;;3.63;3.17;;;4.40;79.60;;;;;;5069905;28;20252;-50
2020/12/27 02:29:23;;;;;;;4.27;3.87;;;4.50;80.00;;;;;;5069652;28;20710;-50
2020/12/27 02:31:49;;;;;;;4.27;3.90;;;4.50;80.00;;;;;;5069793;28;20629;-50
2020/12/27 02:34:16;;;;;;;8.13;4.93;;;4.50;79.80;;;;;;5069747;28;20787;-49
2020/12/27 02:36:43;;;;;;;2.93;2.73;;;4.60;80.70;;;;;;5070081;28;20764;-50
2020/12/27 02:39:10;;;;;;;5.07;4.57;;;4.50;80.30;;;;;;5069312;28;20649;-50
2020/12/27 02:41:38;;;;;;;3.40;3.10;;;4.50;80.70;;;;;;5069863;28;20702;-50
2020/12/27 02:44:05;;;;;;;4.78;4.35;;;4.30;80.40;;;;;;5069447;28;21226;-51
2020/12/27 02:46:32;;;;;;;4.95;3.55;;;4.30;82.90;;;;;;5070587;28;20203;-49
2020/12/27 02:48:58;;;;;;;5.22;4.70;;;4.20;82.40;;;;;;5069054;28;20222;-50
2020/12/27 02:51:26;;;;;;;6.68;3.70;;;4.20;82.20;;;;;;5069199;28;20251;-50
2020/12/27 02:53:53;;;;;;;3.78;3.45;;;4.10;82.50;;;;;;5069718;28;20612;-50
2020/12/27 02:56:21;;;;;;;7.60;3.90;;;4.10;83.00;;;;;;5069667;28;20560;-53
2020/12/27 02:58:49;;;;;;;9.88;5.30;;;4.10;83.40;;;;;;5069273;28;20222;-51
2020/12/27 03:01:16;;;;;;;6.10;5.00;;;4.10;83.30;;;;;;5069391;28;20229;-52
2020/12/27 03:03:43;;;;;;;4.20;3.58;;;4.10;83.10;;;;;;5070593;28;20247;-52
2020/12/27 03:06:10;;;;;;;5.97;3.85;;;4.20;83.00;;;;;;5073878;28;20347;-50
2020/12/27 03:08:36;;;;;;;5.40;4.85;;;4.20;83.00;;;;;;5072136;28;20262;-50
2020/12/27 03:11:03;;;;;;;7.65;4.15;;;4.20;82.80;;;;;;5072559;28;20199;-50
2020/12/27 03:13:32;;;;;;;13.05;4.90;;;4.20;83.40;;;;;;5072306;28;20642;-50
2020/12/27 03:15:59;;;;;;;8.43;4.70;;;4.20;82.80;;;;;;5073578;28;20207;-52
2020/12/27 03:18:26;;;;;;;6.60;5.75;;;4.20;83.00;;;;;;5073030;28;20324;-51
2020/12/27 03:20:53;;;;;;;8.40;5.10;;;4.20;83.30;;;;;;5073246;28;20224;-52
2020/12/27 03:23:20;;;;;;;9.80;5.53;;;4.20;82.90;;;;;;5073493;28;20330;-51
2020/12/27 03:25:47;;;;;;;5.72;3.42;;;4.20;83.60;;;;;;5073054;28;20210;-52
2020/12/27 03:28:14;;;;;;;6.43;5.38;;;4.10;83.00;;;;;;5072819;28;20634;-52
2020/12/27 03:30:41;;;;;;;7.80;6.00;;;4.10;83.30;;;;;;5072749;28;20238;-52
2020/12/27 03:33:08;;;;;;;4.85;4.28;;;4.10;83.40;;;;;;5072796;28;20199;-52
2020/12/27 03:35:35;;;;;;;5.50;4.90;;;4.00;83.60;;;;;;5072673;28;20647;-52
2020/12/27 03:38:02;;;;;;;7.68;4.45;;;4.00;83.60;;;;;;5072390;28;20226;-52
2020/12/27 03:40:29;;;;;;;5.22;4.60;;;3.90;83.40;;;;;;5072978;28;20248;-52
2020/12/27 03:42:56;;;;;;;3.90;3.60;;;3.90;83.50;;;;;;5073049;28;20209;-50
2020/12/27 03:45:22;;;;;;;6.63;3.88;;;3.90;83.40;;;;;;5063573;28;20752;-50
2020/12/27 03:47:49;;;;;;;3.83;3.45;;;3.90;83.50;;;;;;5050937;28;20227;-50
2020/12/27 03:50:16;;;;;;;6.47;3.63;;;3.90;83.30;;;;;;5052206;28;20261;-50
2020/12/27 03:52:43;;;;;;;4.72;4.25;;;3.90;83.30;;;;;;5052280;28;20255;-50
2020/12/27 03:55:10;;;;;;;4.47;4.07;;;3.90;83.40;;;;;;5052421;28;20667;-50
2020/12/27 03:57:37;;;;;;;5.38;4.10;;;3.90;83.40;;;;;;5050947;28;20226;-50
2020/12/27 04:00:04;;;;;;;6.13;3.72;;;3.90;83.30;;;;;;5052894;28;20194;-50
2020/12/27 04:02:31;;;;;;;5.45;4.18;;;3.80;83.90;;;;;;5052422;28;20275;-50
2020/12/27 04:04:57;;;;;;;4.35;3.95;;;3.80;83.90;;;;;;5052501;28;20260;-49
2020/12/27 04:07:25;;;;;;;7.47;4.72;;;3.80;83.70;;;;;;5052193;28;20280;-51
2020/12/27 04:09:52;;;;;;;4.25;3.85;;;3.70;83.40;;;;;;5052743;28;20699;-50
2020/12/27 04:12:19;;;;;;;4.43;3.22;;;3.70;83.60;;;;;;5052684;28;20202;-50
2020/12/27 04:14:45;;;;;;;3.72;3.35;;;3.70;83.70;;;;;;5054666;28;20217;-51
2020/12/27 04:17:12;;;;;;;4.32;3.92;;;3.70;84.00;;;;;;5071732;28;20198;-51
2020/12/27 04:19:39;;;;;;;6.20;3.40;;;3.70;83.80;;;;;;5072357;28;20233;-51
2020/12/27 04:22:06;;;;;;;5.25;4.32;;;3.80;83.90;;;;;;5072461;28;20278;-51
2020/12/27 04:24:33;;;;;;;4.15;3.75;;;3.70;83.60;;;;;;5072134;28;20610;-51
2020/12/27 04:27:00;;;;;;;6.57;3.08;;;3.60;83.60;;;;;;5072164;28;20268;-51
2020/12/27 04:29:27;;;;;;;5.47;5.07;;;3.60;84.30;;;;;;5071936;28;20287;-51
2020/12/27 04:31:54;;;;;;;2.95;2.70;;;3.60;84.20;;;;;;5072205;28;20195;-48
2020/12/27 04:34:20;;;;;;;5.80;4.60;;;3.60;84.00;;;;;;5071142;28;20621;-49
2020/12/27 04:36:47;;;;;;;4.55;4.15;;;3.60;84.90;;;;;;5071757;28;20678;-50
2020/12/27 04:39:14;;;;;;;4.90;4.40;;;3.70;84.20;;;;;;5071637;28;20214;-49
2020/12/27 04:41:41;;;;;;;7.15;6.15;;;3.60;83.80;;;;;;5071982;28;20216;-50
2020/12/27 04:44:08;;;;;;;5.00;4.35;;;3.60;84.20;;;;;;5071812;28;20201;-50
2020/12/27 04:46:35;;;;;;;6.63;5.30;;;3.60;84.20;;;;;;5071598;28;20214;-50
2020/12/27 04:49:02;;;;;;;5.05;2.53;;;3.70;84.30;;;;;;5071663;28;20230;-50
2020/12/27 04:51:29;;;;;;;3.58;3.28;;;3.60;84.10;;;;;;5071288;28;20332;-50
2020/12/27 04:53:56;;;;;;;4.32;3.85;;;3.60;84.10;;;;;;5071395;28;20249;-50
2020/12/27 04:56:24;;;;;;;7.43;5.13;;;3.60;84.20;;;;;;5071632;28;20573;-50
2020/12/27 04:58:53;;;;;;;5.22;4.72;;;3.60;84.20;;;;;;5071218;28;20227;-50
2020/12/27 05:01:20;;;;;;;5.25;4.72;;;3.60;84.20;;;;;;5071137;28;20351;-50
2020/12/27 05:03:46;;;;;;;4.78;4.30;;;3.60;84.30;;;;;;5071208;28;20207;-50
2020/12/27 05:06:14;;;;;;;4.80;4.38;;;3.70;84.20;;;;;;5071348;28;20502;-50
2020/12/27 05:08:41;;;;;;;8.90;5.43;;;3.70;83.90;;;;;;5070724;28;20223;-50
2020/12/27 05:11:07;;;;;;;5.25;3.70;;;3.70;83.90;;;;;;5070752;28;20585;-50
2020/12/27 05:13:34;;;;;;;6.05;5.57;;;3.60;84.10;;;;;;5070847;28;20213;-50
2020/12/27 05:16:04;;;;;;;6.65;4.70;;;3.60;83.80;;;;;;5070665;28;20351;-50
2020/12/27 05:18:31;;;;;;;5.90;3.20;;;3.70;83.80;;;;;;5100689;22;20592;-53
2020/12/27 05:20:58;;;;;;;3.38;2.40;;;3.70;83.50;;;;;;5092769;28;20198;-54
2020/12/27 05:23:25;;;;;;;5.70;3.70;;;3.70;83.30;;;;;;5093101;28;20217;-54
2020/12/27 05:25:52;;;;;;;2.95;2.65;;;3.60;83.70;;;;;;5093113;28;20221;-54
2020/12/27 05:28:19;;;;;;;4.80;2.95;;;3.60;84.00;;;;;;5092637;28;20620;-53
2020/12/27 05:30:46;;;;;;;5.80;4.38;;;3.60;83.40;;;;;;5092649;28;20225;-54
2020/12/27 05:33:14;;;;;;;5.82;3.78;;;3.70;83.60;;;;;;5092743;28;20617;-53
2020/12/27 05:35:41;;;;;;;5.72;5.13;;;3.70;83.30;;;;;;5080835;28;20260;-53
2020/12/27 05:38:09;;;;;;;4.65;4.25;;;3.80;83.10;;;;;;5072279;28;20234;-53
2020/12/27 05:40:36;;;;;;;6.25;4.75;;;3.80;83.00;;;;;;5072417;28;20206;-54
2020/12/27 05:43:06;;;;;;;4.35;3.70;;;3.70;82.90;;;;;;5071837;28;20283;-54
2020/12/27 05:45:33;;;;;;;6.10;4.43;;;3.70;82.80;;;;;;5071752;28;20201;-54
2020/12/27 05:47:59;;;;;;;3.83;3.20;;;3.70;82.60;;;;;;5071684;28;20276;-54
2020/12/27 05:50:27;;;;;;;10.02;4.63;;;3.60;82.70;;;;;;5072213;28;20802;-54
2020/12/27 05:52:59;;;;;;;5.18;4.13;;;3.70;82.50;;;;;;5072219;28;20199;-54
2020/12/27 05:55:26;;;;;;;6.07;4.13;;;3.70;82.60;;;;;;5072186;28;20235;-53
2020/12/27 05:57:53;;;;;;;4.05;2.85;;;3.70;82.60;;;;;;5071721;28;20694;-54
2020/12/27 06:00:22;;;;;;;4.38;3.97;;;3.70;82.60;;;;;;5054431;28;20236;-54
2020/12/27 06:02:56;;;;;;;4.50;4.10;;;3.70;82.80;;;;;;5071858;28;20206;-54
2020/12/27 06:05:32;;;;;;;4.35;3.60;;;3.70;83.00;;;;;;5071957;28;20209;-54
2020/12/27 06:08:07;;;;;;;4.25;3.58;;;3.60;83.40;;;;;;5053615;28;20274;-54
2020/12/27 06:10:34;;;;;;;4.30;3.65;;;3.60;83.80;;;;;;5071933;28;20253;-54
2020/12/27 06:13:34;;;;;;;4.75;4.45;;;3.60;84.40;;;;;;5071605;28;20205;-54
2020/12/27 06:16:01;;;;;;;3.80;3.40;;;3.60;85.20;;;;;;5071470;28;20210;-54
2020/12/27 06:18:28;;;;;;;2.85;2.65;;;3.60;84.80;;;;;;5071033;28;20710;-54
2020/12/27 06:21:06;;;;;;;4.10;3.28;;;3.60;84.70;;;;;;5071497;28;20202;-54
2020/12/27 06:23:34;;;;;;;10.07;4.85;;;3.50;84.70;;;;;;5070829;28;20258;-55
2020/12/27 06:26:01;;;;;;;6.15;3.65;;;3.50;85.20;;;;;;5071743;28;20203;-54
2020/12/27 06:28:28;;;;;;;4.32;3.92;;;3.50;85.90;;;;;;5071081;28;20222;-54
2020/12/27 06:30:56;;;;;;;5.43;3.72;;;3.50;85.60;;;;;;5071233;28;20280;-54
2020/12/27 06:33:24;;;;;;;5.85;3.50;;;3.50;85.60;;;;;;5070938;28;20607;-54
2020/12/27 06:35:51;;;;;;;7.93;3.15;;;3.50;85.80;;;;;;5071454;28;20210;-54
2020/12/27 06:38:19;;;;;;;5.18;4.35;;;3.50;85.60;;;;;;5070450;28;20221;-54
2020/12/27 06:40:47;;;;;;;7.20;4.53;;;3.50;86.20;;;;;;5071357;28;20211;-54
2020/12/27 06:43:18;;;;;;;6.10;4.25;;;3.60;85.80;;;;;;5071749;28;20686;-54
2020/12/27 06:45:44;;;;;;;6.03;4.43;;;3.60;85.80;;;;;;5071075;28;20259;-54
2020/12/27 06:48:11;;;;;;;8.35;4.55;;;3.60;85.00;;;;;;5071315;28;20234;-54
2020/12/27 06:50:45;;;;;;;5.63;3.55;;;3.70;86.70;;;;;;5071293;28;20272;-53
2020/12/27 06:53:12;;;;;;;5.50;4.38;;;3.60;85.20;;;;;;5071663;28;20546;-53
2020/12/27 06:55:41;;;;;;;4.72;3.35;;;3.70;84.50;;;;;;5071490;28;20206;-53
2020/12/27 06:58:20;;;;;;;5.45;4.00;;;3.70;84.20;;;;;;5071781;28;20624;-54
2020/12/27 07:00:48;;;;;;;4.80;2.88;;;3.60;83.80;;;;;;5071577;28;20343;-53
2020/12/27 07:03:19;;;;;;;4.00;3.67;;;3.60;83.90;;;;;;5071856;28;20309;-53
2020/12/27 07:05:46;;;;;;;3.60;2.95;;;3.60;83.90;;;;;;5071462;28;20274;-53
2020/12/27 07:08:14;;;;;;;4.22;2.83;;;3.60;83.80;;;;;;5071649;28;20656;-53
2020/12/27 07:10:42;;;;;;;2.85;2.15;;;3.60;84.70;;;;;;5071454;28;20280;-53
2020/12/27 07:13:10;;;;;;;3.58;3.03;;;3.60;84.10;;;;;;5070890;28;20206;-53
2020/12/27 07:15:46;;;;;;;3.72;3.05;;;3.60;83.90;;;;;;5071230;28;20674;-53
2020/12/27 07:18:13;;;;;;;4.40;2.90;;;3.60;83.80;;;;;;5070953;28;20267;-53
2020/12/27 07:20:43;;;;;;;3.38;2.38;;;3.70;83.70;;;;;;5071259;28;20195;-53
2020/12/27 07:23:11;;;;;;;3.20;2.88;;;3.60;83.10;;;;;;5070655;28;20202;-53
2020/12/27 07:25:43;;;;;;;3.38;2.80;;;3.70;83.10;;;;;;5071175;28;20686;-53
2020/12/27 07:28:10;;;;;;;2.20;2.10;;;3.70;82.80;;;;;;5070807;28;20288;-53
2020/12/27 07:30:37;;;;;;;4.93;2.80;;;3.70;82.70;;;;;;5071128;28;20234;-53
2020/12/27 07:33:07;;;;;;;4.15;3.75;;;3.70;82.70;;;;;;5071324;28;20449;-53
2020/12/27 07:35:35;;;;;;;5.45;4.22;;;3.70;82.60;;;;;;5071066;28;20217;-52
2020/12/27 07:38:02;;;;;;;2.70;2.40;;;3.70;82.60;;;;;;5071327;28;20225;-53
2020/12/27 07:40:30;;;;;;;4.72;3.35;;;3.80;82.30;;;;;;5070942;28;20202;-53
2020/12/27 07:42:59;;;;;;;3.08;2.17;;;3.70;82.20;;;;;;5070537;28;20634;-53
2020/12/27 07:45:25;;;;;;;3.83;3.08;;;3.70;82.40;;;;;;5070342;28;20207;-53
2020/12/27 07:47:52;;;;;;;13.35;3.40;;;3.70;82.50;;;;;;5070410;28;20231;-53
2020/12/27 07:50:19;;;;;;;3.17;2.72;;;3.70;82.40;;;;;;5072780;28;20214;-53
2020/12/27 07:52:51;;;;;;;2.72;2.53;;;3.80;82.40;;;;;;5074925;28;20271;-53
2020/12/27 07:55:29;;;;;;;3.78;3.47;;;3.90;82.00;;;;;;5074091;28;20202;-52
2020/12/27 07:57:56;;;;;;;3.20;2.90;;;3.90;81.00;;;;;;5074066;28;20219;-53
2020/12/27 08:00:25;;;;;;;2.85;2.45;;;3.90;81.20;;;;;;5074083;28;20748;-53
2020/12/27 08:02:51;;;;;;;2.53;2.33;;;3.90;81.70;;;;;;5073812;28;20207;-52
2020/12/27 08:05:18;;;;;;;6.60;3.70;;;3.90;81.20;;;;;;5073993;28;20233;-53
2020/12/27 08:07:45;;;;;;;2.33;2.05;;;4.00;80.50;;;;;;5074203;28;20210;-54
2020/12/27 08:10:19;;;;;;;4.00;2.33;;;3.90;80.10;;;;;;5073318;28;20691;-53
2020/12/27 08:12:56;;;;;;;4.38;3.67;;;3.90;80.40;;;;;;5073797;28;20802;-53
2020/12/27 08:15:24;;;;;;;3.03;2.60;;;4.00;79.90;;;;;;5074037;28;20268;-53
2020/12/27 08:18:01;;;;;;;3.85;2.38;;;4.00;81.50;;;;;;5073680;28;20225;-54
2020/12/27 08:20:29;;;;;;;3.08;1.90;;;4.00;80.60;;;;;;5074083;28;20203;-53
2020/12/27 08:23:03;;;;;;;2.43;2.23;;;4.00;80.00;;;;;;5073939;28;20256;-53
2020/12/27 08:25:31;;;;;;;2.97;2.40;;;4.00;79.90;;;;;;5073737;28;21032;-53
2020/12/27 08:27:58;;;;;;;2.28;2.00;;;4.00;79.80;;;;;;5073813;28;20291;-53
2020/12/27 08:30:26;;;;;;;3.10;2.80;;;4.00;79.70;;;;;;5073858;28;20547;-54
2020/12/27 08:33:17;;;;;;;3.13;2.83;;;4.00;79.50;;;;;;5073878;28;20260;-53
2020/12/27 08:35:45;;;;;;;2.35;1.95;;;4.10;79.30;;;;;;5048885;28;20237;-54
2020/12/27 08:38:21;;;;;;;2.50;2.13;;;4.10;78.80;;;;;;5073118;28;20234;-53
2020/12/27 08:41:04;;;;;;;2.03;1.70;;;4.00;79.80;;;;;;5072914;28;20225;-54
2020/12/27 08:43:46;;;;;;;2.40;2.20;;;4.10;79.70;;;;;;5073619;28;21073;-54
2020/12/27 08:46:13;;;;;;;3.10;2.23;;;4.10;79.70;;;;;;5073254;28;20206;-54
2020/12/27 08:48:43;;;;;;;2.20;2.00;;;4.10;78.60;;;;;;5072969;28;20706;-54
2020/12/27 08:51:10;;;;;;;2.00;1.90;;;4.20;78.60;;;;;;5073230;28;21357;-54
2020/12/27 08:53:40;;;;;;;2.13;1.92;;;4.10;78.40;;;;;;5073295;28;20211;-54
2020/12/27 08:56:09;;;;;;;4.22;2.05;;;4.10;78.90;;;;;;5073310;28;20277;-53
2020/12/27 08:58:35;;;;;;;2.08;1.88;;;4.10;78.40;;;;;;5073001;28;20295;-55
2020/12/27 09:01:03;;;;;;;3.20;2.30;;;4.20;79.20;;;;;;5071610;28;20616;-55
2020/12/27 09:03:34;;;;;;;2.93;1.53;;;4.10;78.70;;;;;;5072542;28;20203;-55
2020/12/27 09:06:11;;;;;;;3.40;2.53;;;4.20;78.20;;;;;;5053330;28;20678;-55
2020/12/27 09:08:38;;;;;;;7.28;2.20;;;4.20;78.30;;;;;;5072879;28;21077;-54
2020/12/27 09:11:05;;;;;;;2.40;2.03;;;4.30;78.00;;;;;;5072840;28;20269;-55
2020/12/27 09:13:35;;;;;;;3.03;1.60;;;4.30;77.90;;;;;;5072359;28;21172;-54
2020/12/27 09:16:02;;;;;;;1.60;1.47;;;4.40;77.70;;;;;;5073054;28;20633;-55
2020/12/27 09:18:30;;;;;;;2.90;2.00;;;4.40;78.00;;;;;;5072567;28;20687;-54
2020/12/27 09:20:58;;;;;;;2.38;2.17;;;4.40;77.60;;;;;;5072557;28;20260;-55
2020/12/27 09:23:25;;;;;;;1.53;1.37;;;4.40;76.90;;;;;;5072939;28;20678;-54
2020/12/27 09:26:03;;;;;;;2.85;1.40;;;4.40;77.00;;;;;;5072647;28;20625;-55
2020/12/27 09:28:31;;;;;;;2.47;1.80;;;4.40;77.70;;;;;;5054838;28;20707;-55
2020/12/27 09:30:59;;;;;;;1.60;1.13;;;4.50;77.80;;;;;;5072745;28;20219;-55
2020/12/27 09:33:26;;;;;;;2.30;1.90;;;4.50;77.70;;;;;;5072770;28;20650;-55
2020/12/27 09:35:56;;;;;;;2.07;1.70;;;4.60;77.40;;;;;;5072423;28;20625;-55
2020/12/27 09:38:24;;;;;;;3.63;2.25;;;4.70;76.70;;;;;;5072591;28;21278;-55
2020/12/27 09:41:05;;;;;;;1.87;1.70;;;4.70;76.30;;;;;;5072688;28;20204;-55
2020/12/27 09:43:31;;;;;;;3.05;1.38;;;4.80;76.50;;;;;;5072145;28;21247;-55
2020/12/27 09:45:58;;;;;;;1.60;1.50;;;4.70;76.20;;;;;;5071668;28;20198;-55
2020/12/27 09:48:31;;;;;;;3.50;1.40;;;4.70;76.40;;;;;;5072012;28;20230;-55
2020/12/27 09:50:58;;;;;;;4.05;1.20;;;4.70;76.60;;;;;;5072211;28;20645;-55
2020/12/27 09:53:26;;;;;;;1.20;1.03;;;4.70;76.70;;;;;;5070829;28;20740;-55
2020/12/27 09:55:52;;;;;;;1.67;1.27;;;4.70;76.60;;;;;;5072081;28;20675;-54
2020/12/27 09:58:19;;;;;;;2.65;1.55;;;4.80;76.40;;;;;;5072068;28;21393;-55
2020/12/27 10:00:46;;;;;;;1.30;1.23;;;4.80;76.60;;;;;;5072208;28;20682;-55
2020/12/27 10:03:13;;;;;;;1.38;1.27;;;4.70;76.90;;;;;;5072192;28;20645;-55
2020/12/27 10:05:40;;;;;;;1.37;1.33;;;4.80;76.80;;;;;;5071739;28;20612;-55
2020/12/27 10:08:07;;;;;;;1.20;1.10;;;4.80;76.50;;;;;;5070640;28;21291;-55
2020/12/27 10:10:34;;;;;;;1.83;1.50;;;4.80;77.40;;;;;;5071979;28;20683;-55
2020/12/27 10:13:01;;;;;;;1.20;0.93;;;4.80;76.50;;;;;;5071076;28;20635;-55
2020/12/27 10:15:28;;;;;;;1.83;1.73;;;4.90;76.50;;;;;;5071908;28;20203;-54
2020/12/27 10:17:54;;;;;;;2.40;1.53;;;5.00;76.50;;;;;;5071456;28;20706;-55
2020/12/27 10:20:21;;;;;;;1.40;1.30;;;5.00;76.30;;;;;;5071165;28;20732;-56
2020/12/27 10:22:48;;;;;;;1.23;0.87;;;5.10;76.20;;;;;;5071422;28;20678;-55
2020/12/27 10:25:15;;;;;;;3.27;1.80;;;5.20;75.90;;;;;;5071604;28;20630;-56
2020/12/27 10:27:43;;;;;;;1.47;1.07;;;5.10;76.00;;;;;;5072071;28;20633;-56
2020/12/27 10:30:09;;;;;;;3.23;1.40;;;5.20;75.90;;;;;;5072030;28;20622;-56
2020/12/27 10:32:36;;;;;;;1.63;0.97;;;5.10;76.50;;;;;;5072255;28;20625;-56
2020/12/27 10:35:03;;;;;;;2.20;1.40;;;5.30;76.90;;;;;;5072313;28;20633;-56
2020/12/27 10:37:30;;;;;;;1.43;1.33;;;5.30;76.40;;;;;;5072261;28;20614;-56
2020/12/27 10:39:56;;;;;;;0.87;0.87;;;5.30;76.50;;;;;;5071787;28;21244;-54
2020/12/27 10:42:23;;;;;;;2.60;1.30;;;5.40;76.30;;;;;;5071267;28;21169;-56
2020/12/27 10:44:51;;;;;;;1.70;1.27;;;5.40;75.70;;;;;;5070936;28;20683;-55
2020/12/27 10:47:17;;;;;;;1.40;1.03;;;5.30;75.30;;;;;;5071376;28;20621;-56
2020/12/27 10:49:44;;;;;;;1.20;1.00;;;5.40;75.90;;;;;;5071580;28;20710;-56
2020/12/27 10:52:11;;;;;;;0.97;0.97;;;5.40;76.20;;;;;;5071488;28;20710;-55
2020/12/27 10:54:38;;;;;;;3.90;2.10;;;5.40;76.10;;;;;;5071374;28;20617;-55
2020/12/27 10:57:04;;;;;;;2.23;1.30;;;5.40;75.30;;;;;;5071245;28;21253;-56
2020/12/27 10:59:31;;;;;;;4.20;1.00;;;5.40;75.20;;;;;;5053289;28;20723;-54
2020/12/27 11:01:59;;;;;;;1.00;0.90;;;5.40;75.40;;;;;;5071190;28;20624;-56
2020/12/27 11:04:25;;;;;;;3.30;1.23;;;5.40;75.80;;;;;;5071224;28;20683;-55
2020/12/27 11:06:52;;;;;;;0.90;0.80;;;5.50;75.60;;;;;;5071077;28;20637;-55
2020/12/27 11:09:19;;;;;;;7.90;3.40;;;5.60;75.10;;;;;;5071215;28;20657;-55
2020/12/27 11:11:46;;;;;;;0.70;0.70;;;5.60;74.90;;;;;;5071285;28;20706;-56
2020/12/27 11:14:13;;;;;;;1.50;1.30;;;5.60;75.10;;;;;;5070912;28;20716;-56
2020/12/27 11:16:39;;;;;;;1.10;1.10;;;5.60;77.10;;;;;;5070919;28;20637;-55
2020/12/27 11:19:07;;;;;;;2.20;1.80;;;5.60;75.40;;;;;;5091885;22;21032;-51
2020/12/27 11:21:34;;;;;;;1.60;1.50;;;5.70;75.20;;;;;;5089489;28;20620;-51
2020/12/27 11:24:00;;;;;;;2.20;1.10;;;5.70;75.40;;;;;;5089503;28;20621;-51
2020/12/27 11:26:27;;;;;;;0.87;0.87;;;5.80;75.00;;;;;;5093292;28;21208;-51
2020/12/27 11:28:54;;;;;;;1.23;0.97;;;5.80;75.40;;;;;;5093063;28;20683;-51
2020/12/27 11:31:21;;;;;;;1.40;1.30;;;5.80;74.90;;;;;;5072644;28;20657;-51
2020/12/27 11:33:48;;;;;;;1.37;0.87;;;5.80;74.80;;;;;;5072467;28;20629;-51
2020/12/27 11:36:15;;;;;;;1.83;1.40;;;5.80;75.10;;;;;;5072652;28;20659;-51
2020/12/27 11:38:42;;;;;;;1.37;0.93;;;5.80;75.60;;;;;;5072421;28;20722;-51
2020/12/27 11:41:11;;;;;;;1.50;1.40;;;5.80;75.60;;;;;;5072748;28;20680;-51
2020/12/27 11:43:38;;;;;;;1.77;1.13;;;5.90;75.60;;;;;;5072812;28;20625;-51
2020/12/27 11:46:05;;;;;;;2.90;1.13;;;6.00;76.30;;;;;;5072080;28;20709;-51
2020/12/27 11:48:32;;;;;;;0.90;0.90;;;6.00;75.10;;;;;;5072350;28;20662;-51
2020/12/27 11:50:59;;;;;;;1.10;1.00;;;6.10;74.60;;;;;;5072933;28;20664;-51
2020/12/27 11:53:26;;;;;;;1.60;1.17;;;6.10;74.10;;;;;;5072417;28;21158;-51
2020/12/27 11:55:53;;;;;;;0.90;0.87;;;6.10;74.40;;;;;;5072619;28;20659;-52
2020/12/27 11:58:20;;;;;;;1.20;0.80;;;6.10;74.50;;;;;;5072639;28;20714;-51
2020/12/27 12:00:47;;;;;;;4.30;1.83;;;6.10;74.10;;;;;;5054689;28;20767;-51
2020/12/27 12:03:14;;;;;;;1.20;0.80;;;6.20;73.90;;;;;;5072402;28;20637;-51
2020/12/27 12:05:41;;;;;;;0.80;0.80;;;6.20;73.60;;;;;;5072423;28;20625;-51
2020/12/27 12:08:08;;;;;;;2.40;1.00;;;6.20;73.30;;;;;;5072166;28;20618;-53
2020/12/27 12:10:35;;;;;;;2.50;1.20;;;6.30;73.50;;;;;;5071983;28;20625;-52
2020/12/27 12:13:02;;;;;;;1.90;0.80;;;6.20;73.30;;;;;;5073036;28;20625;-52
2020/12/27 12:15:29;;;;;;;0.60;0.60;;;6.20;74.00;;;;;;5072535;28;20637;-52
2020/12/27 12:17:56;;;;;;;1.17;1.07;;;6.20;73.30;;;;;;5072363;28;20993;-53
2020/12/27 12:23:08;;;;;;;2.43;1.17;;;6.10;73.20;;;;;;5072510;28;20901;-53
2020/12/27 12:25:36;;;;;;;1.27;1.17;;;6.10;73.30;;;;;;5072220;28;20980;-50
2020/12/27 12:28:03;;;;;;;1.80;1.07;;;6.10;73.40;;;;;;5070462;28;20629;-51
2020/12/27 12:30:32;;;;;;;2.07;1.50;;;6.10;73.40;;;;;;5071573;28;20666;-50
2020/12/27 12:32:59;;;;;;;1.10;0.90;;;6.10;73.40;;;;;;5072051;28;21047;-52
2020/12/27 12:35:26;;;;;;;1.00;0.80;;;6.20;73.90;;;;;;5072487;28;20660;-52
2020/12/27 12:37:53;;;;;;;1.53;1.40;;;6.20;73.60;;;;;;5071184;28;20706;-54
2020/12/27 12:40:20;;;;;;;1.00;0.90;;;6.20;73.80;;;;;;5072634;28;20999;-52
2020/12/27 12:42:47;;;;;;;1.13;1.00;;;6.20;73.60;;;;;;5072185;28;20717;-52
2020/12/27 12:45:14;;;;;;;1.43;1.33;;;6.20;73.80;;;;;;5072207;28;20627;-50
2020/12/27 12:47:41;;;;;;;0.90;0.90;;;6.30;73.70;;;;;;5072263;28;20624;-50
2020/12/27 12:50:08;;;;;;;1.00;0.90;;;6.30;74.70;;;;;;5071703;28;20649;-50
2020/12/27 12:52:35;;;;;;;1.57;1.27;;;6.30;73.50;;;;;;5071629;28;20648;-50
2020/12/27 12:55:01;;;;;;;2.63;1.30;;;6.30;73.40;;;;;;5072341;28;20655;-51
2020/12/27 12:57:28;;;;;;;1.13;1.03;;;6.30;73.60;;;;;;5072824;28;20694;-50
2020/12/27 12:59:56;;;;;;;2.03;1.00;;;6.40;73.60;;;;;;5071838;28;20758;-50
2020/12/27 13:02:23;;;;;;;1.83;1.73;;;6.40;73.60;;;;;;5053767;28;20636;-50
2020/12/27 13:04:50;;;;;;;1.17;0.87;;;6.40;73.60;;;;;;5071504;28;20626;-50